Vaggasvarre — LIIJ — position and weather

sailwx.info

Track history (hours):
 
Tides and Currents Weather Stations Pressure Air Temp Water Temp Dewpoint Dewpoint Depression Visibility Wind Speed Wind Dir Waves Ship Positions

Vaggasvarre

Last reported at 2018-Mar-22 11:09 UTC. Time now 2018-Apr-24 03:06 UTC.
Position N 69°35' E 020°14'.
Warning: this ship's position is 32 days out of date.

Length 65 m.

Type: Passenger vessel. MMSI: 257059800.

Date/timePositionNaut miles runAvg speedWind from/ knotsBaromVisibWave heightAir tempDewpointWater temp
2018-Mar-22 11:09N 69°35' E 020°14'3 9.4
2018-Mar-22 10:48N 69°36' E 020°22'310.7
2018-Mar-22 10:29N 69°40' E 020°24'510.8
2018-Mar-22 09:59N 69°45' E 020°25'510.7
2018-Mar-22 09:30N 69°50' E 020°25'510.6
2018-Mar-22 09:00N 69°55' E 020°23'5 9.2
2018-Mar-22 08:30N 69°59' E 020°15'510.7
2018-Mar-22 08:00N 69°56' E 020°03'610.9
2018-Mar-22 07:28N 69°52' E 019°49'510.8
2018-Mar-22 06:59N 69°50' E 019°36'510.9
2018-Mar-22 06:30N 69°48' E 019°22'611.0
2018-Mar-22 06:00N 69°46' E 019°07'510.6
2018-Mar-22 05:30N 69°41' E 019°01'4 7.2
2018-Mar-22 05:00N 69°38' E 018°56'510.3
2018-Mar-22 04:30N 69°34' E 018°47'5 9.2
2018-Mar-22 04:00N 69°33' E 018°34'510.8
2018-Mar-22 03:30N 69°31' E 018°20'510.8
2018-Mar-22 03:00N 69°28' E 018°07'510.7
2018-Mar-22 02:30N 69°22' E 018°06'510.1
2018-Mar-22 02:00N 69°18' E 017°58'510.5
2018-Mar-22 01:30N 69°13' E 017°60'4 8.7
2018-Mar-22 01:00N 69°09' E 017°52'510.7
2018-Mar-22 00:30N 69°07' E 017°38'510.7
2018-Mar-21 23:59N 69°05' E 017°24'510.5
2018-Mar-21 23:30N 69°01' E 017°17'510.6
2018-Mar-21 23:00N 68°57' E 017°07'510.6
2018-Mar-21 22:30N 68°54' E 016°56'610.7
2018-Mar-21 21:59N 68°50' E 016°44'5 9.5
2018-Mar-21 21:30N 68°47' E 016°35'1 2.6
2018-Mar-21 21:00N 68°47' E 016°33'0 0.0
2018-Mar-21 20:30N 68°47' E 016°33'0 0.0
2018-Mar-21 20:00N 68°47' E 016°33'0 0.0
2018-Mar-21 19:29N 68°47' E 016°33'0 0.0
2018-Mar-21 18:59N 68°47' E 016°33'0 0.0
2018-Mar-21 18:30N 68°47' E 016°33'0 0.0
2018-Mar-21 18:00N 68°47' E 016°33'0 0.0
2018-Mar-21 17:29N 68°47' E 016°33'0 0.0
2018-Mar-21 17:00N 68°47' E 016°33'0 0.0
2018-Mar-21 16:29N 68°47' E 016°33'0 0.0
2018-Mar-21 16:00N 68°47' E 016°33'0 0.0
2018-Mar-21 15:30N 68°47' E 016°33'0 0.0
2018-Mar-21 15:00N 68°47' E 016°33'0 0.0
2018-Mar-21 14:30N 68°47' E 016°33'0 0.0
2018-Mar-21 14:00N 68°47' E 016°33'0 0.0
2018-Mar-21 13:30N 68°47' E 016°33'0 0.0
2018-Mar-21 13:00N 68°47' E 016°33'0 0.0
2018-Mar-21 12:30N 68°47' E 016°33'0 0.0
2018-Mar-21 11:59N 68°47' E 016°33'3 6.1
2018-Mar-21 11:30N 68°50' E 016°36'3 5.3
2018-Mar-21 11:00N 68°51' E 016°29'1 1.8
2018-Mar-21 10:30N 68°52' E 016°30'1 1.9
2018-Mar-21 10:00N 68°53' E 016°30'1 1.2
2018-Mar-21 09:30N 68°52' E 016°30'1 2.5
2018-Mar-21 09:00N 68°51' E 016°30'0 0.6
2018-Mar-21 08:30N 68°51' E 016°30'1 2.8
2018-Mar-21 08:00N 68°53' E 016°30'1 1.3
2018-Mar-21 07:30N 68°52' E 016°30'1 2.1
2018-Mar-21 07:00N 68°51' E 016°29'2 3.7
2018-Mar-21 06:30N 68°53' E 016°30'1 2.4
2018-Mar-21 06:00N 68°52' E 016°30'1 1.2
2018-Mar-21 05:29N 68°51' E 016°29'2 3.7
2018-Mar-21 04:59N 68°53' E 016°30'0 0.0
2018-Mar-21 04:30N 68°53' E 016°30'0 0.0
2018-Mar-21 04:00N 68°53' E 016°30'0 0.0
2018-Mar-21 03:30N 68°53' E 016°30'0 0.0
2018-Mar-21 03:00N 68°53' E 016°30'0 0.0
2018-Mar-21 02:30N 68°53' E 016°30'0 0.0
2018-Mar-21 02:00N 68°53' E 016°30'0 0.0
2018-Mar-21 01:30N 68°53' E 016°30'0 0.0
2018-Mar-21 01:00N 68°53' E 016°30'0 0.0
2018-Mar-21 00:30N 68°53' E 016°30'0 0.0
2018-Mar-20 23:59N 68°53' E 016°30'0 0.0
2018-Mar-20 23:29N 68°53' E 016°30'0 0.0
2018-Mar-20 23:00N 68°53' E 016°30'0 0.0
2018-Mar-20 22:30N 68°53' E 016°30'2 3.7
2018-Mar-20 22:00N 68°51' E 016°29'2 3.6
2018-Mar-20 21:30N 68°53' E 016°30'2 3.6
2018-Mar-20 21:00N 68°51' E 016°29'2 3.6
2018-Mar-20 20:29N 68°53' E 016°30'2 3.6
2018-Mar-20 19:59N 68°51' E 016°29'2 3.8
2018-Mar-20 19:30N 68°53' E 016°30'2 3.1
2018-Mar-20 19:00N 68°51' E 016°30'2 3.2
2018-Mar-20 18:30N 68°53' E 016°30'2 3.5
2018-Mar-20 17:59N 68°51' E 016°29'0 0.0
2018-Mar-20 17:30N 68°51' E 016°29'0 0.0
2018-Mar-20 17:00N 68°51' E 016°29'2 3.5
2018-Mar-20 16:30N 68°53' E 016°30'1 2.9
2018-Mar-20 16:00N 68°51' E 016°30'0 0.8
2018-Mar-20 15:30N 68°51' E 016°29'1 2.5
2018-Mar-20 14:59N 68°52' E 016°30'1 2.7
2018-Mar-20 14:30N 68°51' E 016°29'2 3.6
2018-Mar-20 14:00N 68°53' E 016°30'2 3.2
2018-Mar-20 13:30N 68°51' E 016°30'0 0.6
2018-Mar-20 13:00N 68°51' E 016°30'0 0.1
2018-Mar-20 12:30N 68°51' E 016°29'0 0.0
2018-Mar-20 12:00N 68°51' E 016°29'0 0.0
2018-Mar-20 11:30N 68°51' E 016°29'0 0.0
2018-Mar-20 11:00N 68°51' E 016°29'2 3.2
2018-Mar-20 10:30N 68°53' E 016°30'0 0.4
2018-Mar-20 09:59N 68°53' E 016°30'1 1.5
2018-Mar-20 09:30N 68°52' E 016°30'1 2.3
2018-Mar-20 09:00N 68°51' E 016°29'1 1.1
2018-Mar-20 08:30N 68°52' E 016°30'1 2.4
2018-Mar-20 07:59N 68°53' E 016°30'1 1.5
2018-Mar-20 07:30N 68°52' E 016°30'1 2.1
2018-Mar-20 06:59N 68°51' E 016°29'2 3.6
2018-Mar-20 06:29N 68°53' E 016°30'2 3.3
2018-Mar-20 05:59N 68°51' E 016°30'0 0.5
2018-Mar-20 05:29N 68°51' E 016°29'2 3.7
2018-Mar-20 04:59N 68°53' E 016°30'0 0.0
2018-Mar-20 04:29N 68°53' E 016°30'0 0.0
2018-Mar-20 03:59N 68°53' E 016°30'0 0.0
2018-Mar-20 03:29N 68°53' E 016°30'0 0.0
2018-Mar-20 02:59N 68°53' E 016°30'0 0.0
2018-Mar-20 02:29N 68°53' E 016°30'0 0.0
2018-Mar-20 01:59N 68°53' E 016°30'0 0.0
2018-Mar-20 01:29N 68°53' E 016°30'0 0.0
2018-Mar-20 00:59N 68°53' E 016°30'0 0.0
2018-Mar-20 00:29N 68°53' E 016°30'0 0.0
2018-Mar-19 23:59N 68°53' E 016°30'0 0.0
2018-Mar-19 23:29N 68°53' E 016°30'0 0.0
2018-Mar-19 22:59N 68°53' E 016°30'0 0.0
2018-Mar-19 22:29N 68°53' E 016°30'2 3.5
2018-Mar-19 21:58N 68°51' E 016°29'2 3.7
2018-Mar-19 21:28N 68°53' E 016°30'2 3.8
2018-Mar-19 21:00N 68°51' E 016°29'2 3.7
2018-Mar-19 20:30N 68°53' E 016°30'2 3.4
2018-Mar-19 19:58N 68°51' E 016°29'2 3.9
2018-Mar-19 19:30N 68°53' E 016°30'1 2.6
2018-Mar-19 19:00N 68°52' E 016°30'1 2.5
2018-Mar-19 18:30N 68°53' E 016°30'2 3.5
2018-Mar-19 17:59N 68°51' E 016°29'0 0.0
2018-Mar-19 17:29N 68°51' E 016°29'0 0.0
2018-Mar-19 16:59N 68°51' E 016°29'2 3.7
2018-Mar-19 16:30N 68°53' E 016°30'2 3.5
2018-Mar-19 16:00N 68°51' E 016°30'0 0.4
2018-Mar-19 15:30N 68°51' E 016°29'1 2.1
2018-Mar-19 14:59N 68°52' E 016°30'1 2.0
2018-Mar-19 14:28N 68°51' E 016°29'2 3.5
2018-Mar-19 13:58N 68°53' E 016°30'1 2.6
2018-Mar-19 13:29N 68°52' E 016°30'1 1.1
2018-Mar-19 13:01N 68°51' E 016°30'0 0.0
2018-Mar-19 12:28N 68°51' E 016°29'0 0.0
2018-Mar-19 11:58N 68°51' E 016°29'0 0.0
2018-Mar-19 11:28N 68°51' E 016°29'0 0.0
2018-Mar-19 10:59N 68°51' E 016°30'1 1.6
2018-Mar-19 10:30N 68°52' E 016°30'1 1.5
2018-Mar-19 09:59N 68°53' E 016°30'0 0.9
2018-Mar-19 09:30N 68°52' E 016°30'1 2.2
2018-Mar-19 09:00N 68°51' E 016°29'0 0.9
2018-Mar-19 08:30N 68°51' E 016°30'1 2.5
2018-Mar-19 08:00N 68°53' E 016°30'1 1.2
2018-Mar-19 07:30N 68°52' E 016°30'1 2.1
2018-Mar-19 07:00N 68°51' E 016°29'2 3.5
2018-Mar-19 06:29N 68°53' E 016°30'1 2.8
2018-Mar-19 06:00N 68°52' E 016°30'0 1.0
2018-Mar-19 05:30N 68°51' E 016°30'2 3.6
2018-Mar-19 05:00N 68°53' E 016°30'2 3.4
2018-Mar-19 04:30N 68°51' E 016°29'0 0.0
2018-Mar-19 04:00N 68°51' E 016°29'0 0.0
2018-Mar-19 03:30N 68°51' E 016°29'0 0.0
2018-Mar-19 03:00N 68°51' E 016°29'0 0.0
2018-Mar-19 02:30N 68°51' E 016°29'0 0.0
2018-Mar-19 02:00N 68°51' E 016°29'0 0.0
2018-Mar-19 01:30N 68°51' E 016°29'0 0.0
2018-Mar-19 01:00N 68°51' E 016°29'0 0.0
2018-Mar-19 00:30N 68°51' E 016°29'0 0.0
2018-Mar-19 00:00N 68°51' E 016°29'0 0.0
2018-Mar-18 23:30N 68°51' E 016°29'0 0.0
2018-Mar-18 22:59N 68°51' E 016°29'0 0.0
2018-Mar-18 22:29N 68°51' E 016°29'0 0.0
2018-Mar-18 21:59N 68°51' E 016°29'2 3.7
2018-Mar-18 21:30N 68°53' E 016°30'2 3.7
2018-Mar-18 21:00N 68°51' E 016°30'2 3.6
2018-Mar-18 20:30N 68°53' E 016°30'2 3.3
2018-Mar-18 19:58N 68°51' E 016°29'2 3.8
2018-Mar-18 19:30N 68°53' E 016°30'2 3.7
2018-Mar-18 19:00N 68°51' E 016°29'2 3.7
2018-Mar-18 18:30N 68°53' E 016°30'2 3.5
2018-Mar-18 17:59N 68°51' E 016°29'2 3.7
2018-Mar-18 17:30N 68°53' E 016°30'0 0.0
2018-Mar-18 16:58N 68°53' E 016°30'0 0.5
2018-Mar-18 16:30N 68°53' E 016°30'0 0.7
2018-Mar-18 16:00N 68°52' E 016°30'1 2.5
2018-Mar-18 15:29N 68°51' E 016°29'1 2.0
2018-Mar-18 15:00N 68°52' E 016°30'1 1.6
2018-Mar-18 14:28N 68°53' E 016°30'2 4.0
2018-Mar-18 14:00N 68°51' E 016°30'2 3.6
2018-Mar-18 13:30N 68°53' E 016°30'0 0.0
2018-Mar-18 13:00N 68°53' E 016°30'0 0.0
2018-Mar-18 12:30N 68°53' E 016°30'0 0.0
2018-Mar-18 12:00N 68°53' E 016°30'0 0.0
2018-Mar-18 11:30N 68°53' E 016°30'0 0.0
2018-Mar-18 11:00N 68°53' E 016°30'0 0.0
2018-Mar-18 10:30N 68°53' E 016°30'2 3.7
2018-Mar-18 10:00N 68°51' E 016°30'2 3.4
2018-Mar-18 09:28N 68°53' E 016°30'2 4.0
2018-Mar-18 09:00N 68°51' E 016°30'2 3.4
2018-Mar-18 08:28N 68°53' E 016°30'0 0.0
2018-Mar-18 07:58N 68°53' E 016°30'0 0.0
2018-Mar-18 07:28N 68°53' E 016°30'0 0.0
2018-Mar-18 06:58N 68°53' E 016°30'0 0.0
2018-Mar-18 06:28N 68°53' E 016°30'0 0.0
2018-Mar-18 05:58N 68°53' E 016°30'0 0.0
2018-Mar-18 05:28N 68°53' E 016°30'0 0.0
2018-Mar-18 04:58N 68°53' E 016°30'0 0.0
2018-Mar-18 04:28N 68°53' E 016°30'0 0.0
2018-Mar-18 03:58N 68°53' E 016°30'0 0.0
2018-Mar-18 03:28N 68°53' E 016°30'0 0.0
2018-Mar-18 02:58N 68°53' E 016°30'0 0.0
2018-Mar-18 02:28N 68°53' E 016°30'0 0.0
2018-Mar-18 01:58N 68°53' E 016°30'0 0.0
2018-Mar-18 01:28N 68°53' E 016°30'0 0.0
2018-Mar-18 00:58N 68°53' E 016°30'0 0.0
2018-Mar-18 00:28N 68°53' E 016°30'0 0.0
2018-Mar-17 23:58N 68°53' E 016°30'0 0.0
2018-Mar-17 23:28N 68°53' E 016°30'0 0.0
2018-Mar-17 22:58N 68°53' E 016°30'0 0.0
2018-Mar-17 22:28N 68°53' E 016°30'2 4.0
2018-Mar-17 22:00N 68°51' E 016°30'2 3.6
2018-Mar-17 21:30N 68°53' E 016°30'2 3.3
2018-Mar-17 20:58N 68°51' E 016°29'2 4.0
2018-Mar-17 20:31N 68°53' E 016°30'2 3.6
2018-Mar-17 20:00N 68°51' E 016°30'2 3.5
2018-Mar-17 19:29N 68°53' E 016°30'2 3.7
2018-Mar-17 19:00N 68°51' E 016°29'2 3.7
2018-Mar-17 18:30N 68°53' E 016°30'2 3.5
2018-Mar-17 17:59N 68°51' E 016°29'2 3.7
2018-Mar-17 17:30N 68°53' E 016°30'0 0.0
2018-Mar-17 17:00N 68°53' E 016°30'0 0.0
2018-Mar-17 16:30N 68°53' E 016°30'2 3.6
2018-Mar-17 16:00N 68°51' E 016°30'2 3.5
2018-Mar-17 15:28N 68°53' E 016°30'2 3.7
2018-Mar-17 14:59N 68°51' E 016°29'2 3.8
2018-Mar-17 14:30N 68°53' E 016°30'2 3.7
2018-Mar-17 14:00N 68°51' E 016°30'2 3.7
2018-Mar-17 13:30N 68°53' E 016°30'2 3.4
2018-Mar-17 12:58N 68°51' E 016°29'0 0.0
2018-Mar-17 12:28N 68°51' E 016°29'0 0.0
2018-Mar-17 11:58N 68°51' E 016°29'0 0.0
2018-Mar-17 11:28N 68°51' E 016°29'0 0.0
2018-Mar-17 10:58N 68°51' E 016°29'1 2.6
2018-Mar-17 10:30N 68°52' E 016°30'1 2.5
2018-Mar-17 10:00N 68°51' E 016°30'2 3.6
2018-Mar-17 09:30N 68°53' E 016°30'2 3.7
2018-Mar-17 09:00N 68°51' E 016°30'2 3.4
2018-Mar-17 08:28N 68°53' E 016°30'2 4.0
2018-Mar-17 08:00N 68°51' E 016°30'2 3.5
2018-Mar-17 07:30N 68°53' E 016°30'2 3.5
2018-Mar-17 07:00N 68°51' E 016°30'2 3.6
2018-Mar-17 06:30N 68°53' E 016°30'0 0.0
2018-Mar-17 05:59N 68°53' E 016°30'0 0.0
2018-Mar-17 05:29N 68°53' E 016°30'0 0.0
2018-Mar-17 04:59N 68°53' E 016°30'0 0.0
2018-Mar-17 04:29N 68°53' E 016°30'0 0.0
2018-Mar-17 03:59N 68°53' E 016°30'0 0.0
2018-Mar-17 03:29N 68°53' E 016°30'0 0.0
2018-Mar-17 02:59N 68°53' E 016°30'0 0.0
2018-Mar-17 02:29N 68°53' E 016°30'0 0.0
2018-Mar-17 01:59N 68°53' E 016°30'0 0.0
2018-Mar-17 01:29N 68°53' E 016°30'0 0.0
2018-Mar-17 00:59N 68°53' E 016°30'0 0.0
2018-Mar-17 00:29N 68°53' E 016°30'0 0.0
2018-Mar-16 23:59N 68°53' E 016°30'0 0.0
2018-Mar-16 23:29N 68°53' E 016°30'0 0.0
2018-Mar-16 22:59N 68°53' E 016°30'0 0.0
2018-Mar-16 22:29N 68°53' E 016°30'2 3.8
2018-Mar-16 22:00N 68°51' E 016°30'2 3.6
2018-Mar-16 21:30N 68°53' E 016°30'2 3.7
2018-Mar-16 21:00N 68°51' E 016°30'2 3.6
2018-Mar-16 20:30N 68°53' E 016°30'2 3.5
2018-Mar-16 20:00N 68°51' E 016°29'2 3.6
2018-Mar-16 19:30N 68°53' E 016°30'2 2.9
2018-Mar-16 18:59N 68°51' E 016°30'2 3.2
2018-Mar-16 18:30N 68°53' E 016°30'2 3.7
2018-Mar-16 18:00N 68°51' E 016°30'0 0.0
2018-Mar-16 17:30N 68°51' E 016°29'0 0.0
2018-Mar-16 17:00N 68°51' E 016°29'2 3.6
2018-Mar-16 16:30N 68°53' E 016°30'1 2.9
2018-Mar-16 15:59N 68°51' E 016°30'0 0.8
2018-Mar-16 15:30N 68°51' E 016°29'1 2.4
2018-Mar-16 15:00N 68°52' E 016°30'1 2.3
2018-Mar-16 14:29N 68°51' E 016°29'2 3.6
2018-Mar-16 14:00N 68°53' E 016°30'1 2.4
2018-Mar-16 13:30N 68°52' E 016°30'1 1.3
2018-Mar-16 12:59N 68°51' E 016°29'0 0.0
2018-Mar-16 12:29N 68°51' E 016°29'0 0.0
2018-Mar-16 11:59N 68°51' E 016°29'0 0.0
2018-Mar-16 11:29N 68°51' E 016°29'0 0.1
2018-Mar-16 11:01N 68°51' E 016°30'1 2.3
2018-Mar-16 10:30N 68°52' E 016°30'1 1.3
2018-Mar-16 10:00N 68°53' E 016°30'1 1.4
2018-Mar-16 09:31N 68°52' E 016°30'1 2.1
2018-Mar-16 08:59N 68°51' E 016°29'0 0.9
2018-Mar-16 08:29N 68°52' E 016°30'1 2.7
2018-Mar-16 07:59N 68°53' E 016°30'1 1.6
2018-Mar-16 07:30N 68°52' E 016°30'1 2.2
2018-Mar-16 07:00N 68°51' E 016°30'2 3.4
2018-Mar-16 06:28N 68°53' E 016°30'2 3.7
2018-Mar-16 06:00N 68°51' E 016°30'0 0.5
2018-Mar-16 05:30N 68°51' E 016°30'2 3.5
2018-Mar-16 04:59N 68°53' E 016°30'0 0.0
2018-Mar-16 04:29N 68°53' E 016°30'0 0.0
2018-Mar-16 03:59N 68°53' E 016°30'0 0.0
2018-Mar-16 03:29N 68°53' E 016°30'0 0.0
2018-Mar-16 02:59N 68°53' E 016°30'0 0.0
2018-Mar-16 02:29N 68°53' E 016°30'0 0.0
2018-Mar-16 01:59N 68°53' E 016°30'0 0.0
2018-Mar-16 01:29N 68°53' E 016°30'0 0.0
2018-Mar-16 00:59N 68°53' E 016°30'0 0.0
2018-Mar-16 00:29N 68°53' E 016°30'0 0.0
2018-Mar-15 23:59N 68°53' E 016°30'0 0.0
2018-Mar-15 23:29N 68°53' E 016°30'0 0.0
2018-Mar-15 22:59N 68°53' E 016°30'0 0.0
2018-Mar-15 22:29N 68°53' E 016°30'2 3.5
2018-Mar-15 21:58N 68°51' E 016°29'2 3.8
2018-Mar-15 21:29N 68°53' E 016°30'2 3.5
2018-Mar-15 20:58N 68°51' E 016°29'2 3.9
2018-Mar-15 20:30N 68°53' E 016°30'2 3.5
2018-Mar-15 19:59N 68°51' E 016°29'2 3.8
2018-Mar-15 19:30N 68°53' E 016°30'2 3.0
2018-Mar-15 18:59N 68°51' E 016°30'2 3.3
2018-Mar-15 18:31N 68°53' E 016°30'2 3.5
2018-Mar-15 18:00N 68°51' E 016°29'0 0.0
2018-Mar-15 17:30N 68°51' E 016°29'0 0.0
2018-Mar-15 17:00N 68°51' E 016°29'2 3.7
2018-Mar-15 16:30N 68°53' E 016°30'2 3.4
2018-Mar-15 16:00N 68°51' E 016°30'0 0.3
2018-Mar-15 15:29N 68°51' E 016°29'1 2.7
2018-Mar-15 15:00N 68°52' E 016°30'1 2.5
2018-Mar-15 14:30N 68°51' E 016°30'2 3.4
2018-Mar-15 13:58N 68°53' E 016°30'1 2.8
2018-Mar-15 13:30N 68°52' E 016°30'1 1.0
2018-Mar-15 12:58N 68°51' E 016°29'0 0.0
2018-Mar-15 12:28N 68°51' E 016°29'0 0.0
2018-Mar-15 11:58N 68°51' E 016°29'0 0.0
2018-Mar-15 11:28N 68°51' E 016°29'0 0.1
2018-Mar-15 11:00N 68°51' E 016°30'1 1.2
2018-Mar-15 10:30N 68°52' E 016°30'1 2.6
2018-Mar-15 10:00N 68°53' E 016°30'1 1.2
2018-Mar-15 09:30N 68°52' E 016°30'1 2.4
2018-Mar-15 09:00N 68°51' E 016°29'1 1.1
2018-Mar-15 08:30N 68°52' E 016°30'1 2.5
2018-Mar-15 08:00N 68°53' E 016°30'1 1.4
2018-Mar-15 07:29N 68°52' E 016°30'1 2.3
2018-Mar-15 07:00N 68°51' E 016°30'2 3.6
2018-Mar-15 06:29N 68°53' E 016°30'2 3.7
2018-Mar-15 06:00N 68°51' E 016°30'0 0.4
2018-Mar-15 05:30N 68°51' E 016°30'2 3.5
2018-Mar-15 04:58N 68°53' E 016°30'0 0.0
2018-Mar-15 04:28N 68°53' E 016°30'0 0.0
2018-Mar-15 03:58N 68°53' E 016°30'0 0.0
2018-Mar-15 03:28N 68°53' E 016°30'0 0.0
2018-Mar-15 02:58N 68°53' E 016°30'0 0.0
2018-Mar-15 02:28N 68°53' E 016°30'0 0.0
2018-Mar-15 01:58N 68°53' E 016°30'0 0.0
2018-Mar-15 01:28N 68°53' E 016°30'0 0.0
2018-Mar-15 00:58N 68°53' E 016°30'0 0.0
2018-Mar-15 00:28N 68°53' E 016°30'0 0.0
2018-Mar-14 23:58N 68°53' E 016°30'0 0.0
2018-Mar-14 23:28N 68°53' E 016°30'0 0.0
2018-Mar-14 22:58N 68°53' E 016°30'0 0.0
2018-Mar-14 22:28N 68°53' E 016°30'2 3.9
2018-Mar-14 22:00N 68°51' E 016°30'2 3.6
2018-Mar-14 21:30N 68°53' E 016°30'2 3.7
2018-Mar-14 21:00N 68°51' E 016°30'2 3.6
2018-Mar-14 20:30N 68°53' E 016°30'2 3.5
2018-Mar-14 20:00N 68°51' E 016°29'2 3.7
2018-Mar-14 19:30N 68°53' E 016°30'1 2.6
2018-Mar-14 19:00N 68°52' E 016°30'1 2.5
2018-Mar-14 18:28N 68°53' E 016°30'2 4.0
2018-Mar-14 18:00N 68°51' E 016°30'0 0.0
2018-Mar-14 17:28N 68°51' E 016°29'0 0.0
2018-Mar-14 16:58N 68°51' E 016°29'2 3.7
2018-Mar-14 16:29N 68°53' E 016°30'2 3.7
2018-Mar-14 16:00N 68°51' E 016°30'0 0.4
2018-Mar-14 15:31N 68°51' E 016°30'2 2.9
2018-Mar-14 14:59N 68°53' E 016°30'2 3.2
2018-Mar-14 14:30N 68°51' E 016°30'2 3.6
2018-Mar-14 14:00N 68°53' E 016°30'1 2.7
2018-Mar-14 13:30N 68°52' E 016°30'0 1.0
2018-Mar-14 13:00N 68°51' E 016°30'0 0.0
2018-Mar-14 12:29N 68°51' E 016°29'0 0.0
2018-Mar-14 11:59N 68°51' E 016°29'0 0.0
2018-Mar-14 11:30N 68°51' E 016°29'0 0.0
2018-Mar-14 11:00N 68°51' E 016°29'1 2.0
2018-Mar-14 10:29N 68°52' E 016°30'1 1.6
2018-Mar-14 10:00N 68°53' E 016°30'0 0.7
2018-Mar-14 09:29N 68°53' E 016°30'1 3.0
2018-Mar-14 09:00N 68°51' E 016°29'1 1.3
2018-Mar-14 08:31N 68°52' E 016°30'1 2.4
2018-Mar-14 08:00N 68°53' E 016°30'1 1.7
2018-Mar-14 07:30N 68°52' E 016°30'1 1.9
2018-Mar-14 06:59N 68°51' E 016°29'2 3.8
2018-Mar-14 06:30N 68°53' E 016°30'2 3.2
2018-Mar-14 06:00N 68°51' E 016°30'0 0.6
2018-Mar-14 05:30N 68°51' E 016°29'2 3.7
2018-Mar-14 05:00N 68°53' E 016°30'0 0.0
2018-Mar-14 04:30N 68°53' E 016°30'0 0.0
2018-Mar-14 04:00N 68°53' E 016°30'0 0.0
2018-Mar-14 03:29N 68°53' E 016°30'0 0.0
2018-Mar-14 03:00N 68°53' E 016°30'0 0.0
2018-Mar-14 02:30N 68°53' E 016°30'0 0.0
2018-Mar-14 01:59N 68°53' E 016°30'0 0.0
2018-Mar-14 01:30N 68°53' E 016°30'0 0.0
2018-Mar-14 00:59N 68°53' E 016°30'0 0.0
2018-Mar-14 00:30N 68°53' E 016°30'0 0.0
2018-Mar-14 00:00N 68°53' E 016°30'0 0.0
2018-Mar-13 23:30N 68°53' E 016°30'0 0.0
2018-Mar-13 22:59N 68°53' E 016°30'0 0.0
2018-Mar-13 22:30N 68°53' E 016°30'2 3.7
2018-Mar-13 22:00N 68°51' E 016°29'2 3.5
2018-Mar-13 21:29N 68°53' E 016°30'2 3.7
2018-Mar-13 21:00N 68°51' E 016°29'2 3.7
2018-Mar-13 20:30N 68°53' E 016°30'2 3.6
2018-Mar-13 20:00N 68°51' E 016°30'2 3.7
2018-Mar-13 19:30N 68°53' E 016°30'1 2.7
2018-Mar-13 19:00N 68°52' E 016°30'1 2.9
2018-Mar-13 18:31N 68°53' E 016°30'2 3.5
2018-Mar-13 17:59N 68°51' E 016°29'0 0.0
2018-Mar-13 17:30N 68°51' E 016°29'0 0.0
2018-Mar-13 17:01N 68°51' E 016°29'2 3.4
2018-Mar-13 16:30N 68°53' E 016°30'1 2.1
2018-Mar-13 16:00N 68°52' E 016°30'1 1.6
2018-Mar-13 15:30N 68°51' E 016°29'1 2.2
2018-Mar-13 15:00N 68°52' E 016°30'1 2.3
2018-Mar-13 14:30N 68°51' E 016°29'2 3.7
2018-Mar-13 14:00N 68°53' E 016°30'1 2.0
2018-Mar-13 13:29N 68°52' E 016°30'1 1.6
2018-Mar-13 12:59N 68°51' E 016°29'0 0.0
2018-Mar-13 12:30N 68°51' E 016°29'0 0.0
2018-Mar-13 12:00N 68°51' E 016°29'0 0.0
2018-Mar-13 11:29N 68°51' E 016°29'0 0.0
2018-Mar-13 11:00N 68°51' E 016°29'2 3.1
2018-Mar-13 10:30N 68°53' E 016°30'0 0.6
2018-Mar-13 10:00N 68°53' E 016°30'1 1.5
2018-Mar-13 09:30N 68°52' E 016°30'1 2.2
2018-Mar-13 09:00N 68°51' E 016°29'0 0.9
2018-Mar-13 08:30N 68°52' E 016°30'1 2.7
2018-Mar-13 08:00N 68°53' E 016°30'0 0.8
2018-Mar-13 07:29N 68°52' E 016°30'1 2.9
2018-Mar-13 07:00N 68°51' E 016°29'2 3.7
2018-Mar-13 06:31N 68°53' E 016°30'2 3.1
2018-Mar-13 05:59N 68°51' E 016°30'0 0.6
2018-Mar-13 05:30N 68°51' E 016°29'2 3.7
2018-Mar-13 05:00N 68°53' E 016°30'0 0.0
2018-Mar-13 04:30N 68°53' E 016°30'0 0.0
2018-Mar-13 04:00N 68°53' E 016°30'0 0.0
2018-Mar-13 03:30N 68°53' E 016°30'0 0.0
2018-Mar-13 03:00N 68°53' E 016°30'0 0.0
2018-Mar-13 02:30N 68°53' E 016°30'0 0.0
2018-Mar-13 01:58N 68°53' E 016°30'0 0.0
2018-Mar-13 01:30N 68°53' E 016°30'0 0.0
2018-Mar-13 01:01N 68°53' E 016°30'0 0.0
2018-Mar-13 00:31N 68°53' E 016°30'0 0.0
2018-Mar-13 00:00N 68°53' E 016°30'0 0.0
2018-Mar-12 23:30N 68°53' E 016°30'0 0.0
2018-Mar-12 22:59N 68°53' E 016°30'0 0.0
2018-Mar-12 22:30N 68°53' E 016°30'2 3.7
2018-Mar-12 22:00N 68°51' E 016°29'2 3.6
2018-Mar-12 21:30N 68°53' E 016°30'2 3.6
2018-Mar-12 21:00N 68°51' E 016°29'2 3.7
2018-Mar-12 20:30N 68°53' E 016°30'2 3.6
2018-Mar-12 20:00N 68°51' E 016°29'2 3.5
2018-Mar-12 19:29N 68°53' E 016°30'1 2.7
2018-Mar-12 19:00N 68°52' E 016°30'1 2.7
2018-Mar-12 18:30N 68°53' E 016°30'2 3.6
2018-Mar-12 18:00N 68°51' E 016°29'0 0.0
2018-Mar-12 17:30N 68°51' E 016°29'0 0.0
2018-Mar-12 17:00N 68°51' E 016°29'2 3.6
2018-Mar-12 16:30N 68°53' E 016°30'2 3.7
2018-Mar-12 16:00N 68°51' E 016°30'0 0.3
2018-Mar-12 15:31N 68°51' E 016°29'1 2.4
2018-Mar-12 14:58N 68°52' E 016°30'1 2.7
2018-Mar-12 14:30N 68°51' E 016°30'2 3.7
2018-Mar-12 14:00N 68°53' E 016°30'1 2.2
2018-Mar-12 13:30N 68°52' E 016°30'1 1.5
2018-Mar-12 13:00N 68°51' E 016°29'0 0.0
2018-Mar-12 12:30N 68°51' E 016°29'0 0.0
2018-Mar-12 12:00N 68°51' E 016°29'0 0.0
2018-Mar-12 11:30N 68°51' E 016°29'  
Track history (hours):
 
Tides and Currents Weather Stations Pressure Air Temp Water Temp Dewpoint Dewpoint Depression Visibility Wind Speed Wind Dir Waves Ship Positions

Vaggasvarre

Last reported at 2018-Mar-22 11:09 UTC. Time now 2018-Apr-24 03:06 UTC.
Position N 69°35' E 020°14'.
Warning: this ship's position is 32 days out of date.

Length 65 m.

Type: Passenger vessel. MMSI: 257059800.

Date/timePositionNaut miles runAvg speedWind from/ knotsBaromVisibWave heightAir tempDewpointWater temp
2018-Mar-22 11:09N 69°35' E 020°14'3 9.4
2018-Mar-22 10:48N 69°36' E 020°22'310.7
2018-Mar-22 10:29N 69°40' E 020°24'510.8
2018-Mar-22 09:59N 69°45' E 020°25'510.7
2018-Mar-22 09:30N 69°50' E 020°25'510.6
2018-Mar-22 09:00N 69°55' E 020°23'5 9.2
2018-Mar-22 08:30N 69°59' E 020°15'510.7
2018-Mar-22 08:00N 69°56' E 020°03'610.9
2018-Mar-22 07:28N 69°52' E 019°49'510.8
2018-Mar-22 06:59N 69°50' E 019°36'510.9
2018-Mar-22 06:30N 69°48' E 019°22'611.0
2018-Mar-22 06:00N 69°46' E 019°07'510.6
2018-Mar-22 05:30N 69°41' E 019°01'4 7.2
2018-Mar-22 05:00N 69°38' E 018°56'510.3
2018-Mar-22 04:30N 69°34' E 018°47'5 9.2
2018-Mar-22 04:00N 69°33' E 018°34'510.8
2018-Mar-22 03:30N 69°31' E 018°20'510.8
2018-Mar-22 03:00N 69°28' E 018°07'510.7
2018-Mar-22 02:30N 69°22' E 018°06'510.1
2018-Mar-22 02:00N 69°18' E 017°58'510.5
2018-Mar-22 01:30N 69°13' E 017°60'4 8.7
2018-Mar-22 01:00N 69°09' E 017°52'510.7
2018-Mar-22 00:30N 69°07' E 017°38'510.7
2018-Mar-21 23:59N 69°05' E 017°24'510.5
2018-Mar-21 23:30N 69°01' E 017°17'510.6
2018-Mar-21 23:00N 68°57' E 017°07'510.6
2018-Mar-21 22:30N 68°54' E 016°56'610.7
2018-Mar-21 21:59N 68°50' E 016°44'5 9.5
2018-Mar-21 21:30N 68°47' E 016°35'1 2.6
2018-Mar-21 21:00N 68°47' E 016°33'0 0.0
2018-Mar-21 20:30N 68°47' E 016°33'0 0.0
2018-Mar-21 20:00N 68°47' E 016°33'0 0.0
2018-Mar-21 19:29N 68°47' E 016°33'0 0.0
2018-Mar-21 18:59N 68°47' E 016°33'0 0.0
2018-Mar-21 18:30N 68°47' E 016°33'0 0.0
2018-Mar-21 18:00N 68°47' E 016°33'0 0.0
2018-Mar-21 17:29N 68°47' E 016°33'0 0.0
2018-Mar-21 17:00N 68°47' E 016°33'0 0.0
2018-Mar-21 16:29N 68°47' E 016°33'0 0.0
2018-Mar-21 16:00N 68°47' E 016°33'0 0.0
2018-Mar-21 15:30N 68°47' E 016°33'0 0.0
2018-Mar-21 15:00N 68°47' E 016°33'0 0.0
2018-Mar-21 14:30N 68°47' E 016°33'0 0.0
2018-Mar-21 14:00N 68°47' E 016°33'0 0.0
2018-Mar-21 13:30N 68°47' E 016°33'0 0.0
2018-Mar-21 13:00N 68°47' E 016°33'0 0.0
2018-Mar-21 12:30N 68°47' E 016°33'0 0.0
2018-Mar-21 11:59N 68°47' E 016°33'3 6.1
2018-Mar-21 11:30N 68°50' E 016°36'3 5.3
2018-Mar-21 11:00N 68°51' E 016°29'1 1.8
2018-Mar-21 10:30N 68°52' E 016°30'1 1.9
2018-Mar-21 10:00N 68°53' E 016°30'1 1.2
2018-Mar-21 09:30N 68°52' E 016°30'1 2.5
2018-Mar-21 09:00N 68°51' E 016°30'0 0.6
2018-Mar-21 08:30N 68°51' E 016°30'1 2.8
2018-Mar-21 08:00N 68°53' E 016°30'1 1.3
2018-Mar-21 07:30N 68°52' E 016°30'1 2.1
2018-Mar-21 07:00N 68°51' E 016°29'2 3.7
2018-Mar-21 06:30N 68°53' E 016°30'1 2.4
2018-Mar-21 06:00N 68°52' E 016°30'1 1.2
2018-Mar-21 05:29N 68°51' E 016°29'2 3.7
2018-Mar-21 04:59N 68°53' E 016°30'0 0.0
2018-Mar-21 04:30N 68°53' E 016°30'0 0.0
2018-Mar-21 04:00N 68°53' E 016°30'0 0.0
2018-Mar-21 03:30N 68°53' E 016°30'0 0.0
2018-Mar-21 03:00N 68°53' E 016°30'0 0.0
2018-Mar-21 02:30N 68°53' E 016°30'0 0.0
2018-Mar-21 02:00N 68°53' E 016°30'0 0.0
2018-Mar-21 01:30N 68°53' E 016°30'0 0.0
2018-Mar-21 01:00N 68°53' E 016°30'0 0.0
2018-Mar-21 00:30N 68°53' E 016°30'0 0.0
2018-Mar-20 23:59N 68°53' E 016°30'0 0.0
2018-Mar-20 23:29N 68°53' E 016°30'0 0.0
2018-Mar-20 23:00N 68°53' E 016°30'0 0.0
2018-Mar-20 22:30N 68°53' E 016°30'2 3.7
2018-Mar-20 22:00N 68°51' E 016°29'2 3.6
2018-Mar-20 21:30N 68°53' E 016°30'2 3.6
2018-Mar-20 21:00N 68°51' E 016°29'2 3.6
2018-Mar-20 20:29N 68°53' E 016°30'2 3.6
2018-Mar-20 19:59N 68°51' E 016°29'2 3.8
2018-Mar-20 19:30N 68°53' E 016°30'2 3.1
2018-Mar-20 19:00N 68°51' E 016°30'2 3.2
2018-Mar-20 18:30N 68°53' E 016°30'2 3.5
2018-Mar-20 17:59N 68°51' E 016°29'0 0.0
2018-Mar-20 17:30N 68°51' E 016°29'0 0.0
2018-Mar-20 17:00N 68°51' E 016°29'2 3.5
2018-Mar-20 16:30N 68°53' E 016°30'1 2.9
2018-Mar-20 16:00N 68°51' E 016°30'0 0.8
2018-Mar-20 15:30N 68°51' E 016°29'1 2.5
2018-Mar-20 14:59N 68°52' E 016°30'1 2.7
2018-Mar-20 14:30N 68°51' E 016°29'2 3.6
2018-Mar-20 14:00N 68°53' E 016°30'2 3.2
2018-Mar-20 13:30N 68°51' E 016°30'0 0.6
2018-Mar-20 13:00N 68°51' E 016°30'0 0.1
2018-Mar-20 12:30N 68°51' E 016°29'0 0.0
2018-Mar-20 12:00N 68°51' E 016°29'0 0.0
2018-Mar-20 11:30N 68°51' E 016°29'0 0.0
2018-Mar-20 11:00N 68°51' E 016°29'2 3.2
2018-Mar-20 10:30N 68°53' E 016°30'0 0.4
2018-Mar-20 09:59N 68°53' E 016°30'1 1.5
2018-Mar-20 09:30N 68°52' E 016°30'1 2.3
2018-Mar-20 09:00N 68°51' E 016°29'1 1.1
2018-Mar-20 08:30N 68°52' E 016°30'1 2.4
2018-Mar-20 07:59N 68°53' E 016°30'1 1.5
2018-Mar-20 07:30N 68°52' E 016°30'1 2.1
2018-Mar-20 06:59N 68°51' E 016°29'2 3.6
2018-Mar-20 06:29N 68°53' E 016°30'2 3.3
2018-Mar-20 05:59N 68°51' E 016°30'0 0.5
2018-Mar-20 05:29N 68°51' E 016°29'2 3.7
2018-Mar-20 04:59N 68°53' E 016°30'0 0.0
2018-Mar-20 04:29N 68°53' E 016°30'0 0.0
2018-Mar-20 03:59N 68°53' E 016°30'0 0.0
2018-Mar-20 03:29N 68°53' E 016°30'0 0.0
2018-Mar-20 02:59N 68°53' E 016°30'0 0.0
2018-Mar-20 02:29N 68°53' E 016°30'0 0.0
2018-Mar-20 01:59N 68°53' E 016°30'0 0.0
2018-Mar-20 01:29N 68°53' E 016°30'0 0.0
2018-Mar-20 00:59N 68°53' E 016°30'0 0.0
2018-Mar-20 00:29N 68°53' E 016°30'0 0.0
2018-Mar-19 23:59N 68°53' E 016°30'0 0.0
2018-Mar-19 23:29N 68°53' E 016°30'0 0.0
2018-Mar-19 22:59N 68°53' E 016°30'0 0.0
2018-Mar-19 22:29N 68°53' E 016°30'2 3.5
2018-Mar-19 21:58N 68°51' E 016°29'2 3.7
2018-Mar-19 21:28N 68°53' E 016°30'2 3.8
2018-Mar-19 21:00N 68°51' E 016°29'2 3.7
2018-Mar-19 20:30N 68°53' E 016°30'2 3.4
2018-Mar-19 19:58N 68°51' E 016°29'2 3.9
2018-Mar-19 19:30N 68°53' E 016°30'1 2.6
2018-Mar-19 19:00N 68°52' E 016°30'1 2.5
2018-Mar-19 18:30N 68°53' E 016°30'2 3.5
2018-Mar-19 17:59N 68°51' E 016°29'0 0.0
2018-Mar-19 17:29N 68°51' E 016°29'0 0.0
2018-Mar-19 16:59N 68°51' E 016°29'2 3.7
2018-Mar-19 16:30N 68°53' E 016°30'2 3.5
2018-Mar-19 16:00N 68°51' E 016°30'0 0.4
2018-Mar-19 15:30N 68°51' E 016°29'1 2.1
2018-Mar-19 14:59N 68°52' E 016°30'1 2.0
2018-Mar-19 14:28N 68°51' E 016°29'2 3.5
2018-Mar-19 13:58N 68°53' E 016°30'1 2.6
2018-Mar-19 13:29N 68°52' E 016°30'1 1.1
2018-Mar-19 13:01N 68°51' E 016°30'0 0.0
2018-Mar-19 12:28N 68°51' E 016°29'0 0.0
2018-Mar-19 11:58N 68°51' E 016°29'0 0.0
2018-Mar-19 11:28N 68°51' E 016°29'0 0.0
2018-Mar-19 10:59N 68°51' E 016°30'1 1.6
2018-Mar-19 10:30N 68°52' E 016°30'1 1.5
2018-Mar-19 09:59N 68°53' E 016°30'0 0.9
2018-Mar-19 09:30N 68°52' E 016°30'1 2.2
2018-Mar-19 09:00N 68°51' E 016°29'0 0.9
2018-Mar-19 08:30N 68°51' E 016°30'1 2.5
2018-Mar-19 08:00N 68°53' E 016°30'1 1.2
2018-Mar-19 07:30N 68°52' E 016°30'1 2.1
2018-Mar-19 07:00N 68°51' E 016°29'2 3.5
2018-Mar-19 06:29N 68°53' E 016°30'1 2.8
2018-Mar-19 06:00N 68°52' E 016°30'0 1.0
2018-Mar-19 05:30N 68°51' E 016°30'2 3.6
2018-Mar-19 05:00N 68°53' E 016°30'2 3.4
2018-Mar-19 04:30N 68°51' E 016°29'0 0.0
2018-Mar-19 04:00N 68°51' E 016°29'0 0.0
2018-Mar-19 03:30N 68°51' E 016°29'0 0.0
2018-Mar-19 03:00N 68°51' E 016°29'0 0.0
2018-Mar-19 02:30N 68°51' E 016°29'0 0.0
2018-Mar-19 02:00N 68°51' E 016°29'0 0.0
2018-Mar-19 01:30N 68°51' E 016°29'0 0.0
2018-Mar-19 01:00N 68°51' E 016°29'0 0.0
2018-Mar-19 00:30N 68°51' E 016°29'0 0.0
2018-Mar-19 00:00N 68°51' E 016°29'0 0.0
2018-Mar-18 23:30N 68°51' E 016°29'0 0.0
2018-Mar-18 22:59N 68°51' E 016°29'0 0.0
2018-Mar-18 22:29N 68°51' E 016°29'0 0.0
2018-Mar-18 21:59N 68°51' E 016°29'2 3.7
2018-Mar-18 21:30N 68°53' E 016°30'2 3.7
2018-Mar-18 21:00N 68°51' E 016°30'2 3.6
2018-Mar-18 20:30N 68°53' E 016°30'2 3.3
2018-Mar-18 19:58N 68°51' E 016°29'2 3.8
2018-Mar-18 19:30N 68°53' E 016°30'2 3.7
2018-Mar-18 19:00N 68°51' E 016°29'2 3.7
2018-Mar-18 18:30N 68°53' E 016°30'2 3.5
2018-Mar-18 17:59N 68°51' E 016°29'2 3.7
2018-Mar-18 17:30N 68°53' E 016°30'0 0.0
2018-Mar-18 16:58N 68°53' E 016°30'0 0.5
2018-Mar-18 16:30N 68°53' E 016°30'0 0.7
2018-Mar-18 16:00N 68°52' E 016°30'1 2.5
2018-Mar-18 15:29N 68°51' E 016°29'1 2.0
2018-Mar-18 15:00N 68°52' E 016°30'1 1.6
2018-Mar-18 14:28N 68°53' E 016°30'2 4.0
2018-Mar-18 14:00N 68°51' E 016°30'2 3.6
2018-Mar-18 13:30N 68°53' E 016°30'0 0.0
2018-Mar-18 13:00N 68°53' E 016°30'0 0.0
2018-Mar-18 12:30N 68°53' E 016°30'0 0.0
2018-Mar-18 12:00N 68°53' E 016°30'0 0.0
2018-Mar-18 11:30N 68°53' E 016°30'0 0.0
2018-Mar-18 11:00N 68°53' E 016°30'0 0.0
2018-Mar-18 10:30N 68°53' E 016°30'2 3.7
2018-Mar-18 10:00N 68°51' E 016°30'2 3.4
2018-Mar-18 09:28N 68°53' E 016°30'2 4.0
2018-Mar-18 09:00N 68°51' E 016°30'2 3.4
2018-Mar-18 08:28N 68°53' E 016°30'0 0.0
2018-Mar-18 07:58N 68°53' E 016°30'0 0.0
2018-Mar-18 07:28N 68°53' E 016°30'0 0.0
2018-Mar-18 06:58N 68°53' E 016°30'0 0.0
2018-Mar-18 06:28N 68°53' E 016°30'0 0.0
2018-Mar-18 05:58N 68°53' E 016°30'0 0.0
2018-Mar-18 05:28N 68°53' E 016°30'0 0.0
2018-Mar-18 04:58N 68°53' E 016°30'0 0.0
2018-Mar-18 04:28N 68°53' E 016°30'0 0.0
2018-Mar-18 03:58N 68°53' E 016°30'0 0.0
2018-Mar-18 03:28N 68°53' E 016°30'0 0.0
2018-Mar-18 02:58N 68°53' E 016°30'0 0.0
2018-Mar-18 02:28N 68°53' E 016°30'0 0.0
2018-Mar-18 01:58N 68°53' E 016°30'0 0.0
2018-Mar-18 01:28N 68°53' E 016°30'0 0.0
2018-Mar-18 00:58N 68°53' E 016°30'0 0.0
2018-Mar-18 00:28N 68°53' E 016°30'0 0.0
2018-Mar-17 23:58N 68°53' E 016°30'0 0.0
2018-Mar-17 23:28N 68°53' E 016°30'0 0.0
2018-Mar-17 22:58N 68°53' E 016°30'0 0.0
2018-Mar-17 22:28N 68°53' E 016°30'2 4.0
2018-Mar-17 22:00N 68°51' E 016°30'2 3.6
2018-Mar-17 21:30N 68°53' E 016°30'2 3.3
2018-Mar-17 20:58N 68°51' E 016°29'2 4.0
2018-Mar-17 20:31N 68°53' E 016°30'2 3.6
2018-Mar-17 20:00N 68°51' E 016°30'2 3.5
2018-Mar-17 19:29N 68°53' E 016°30'2 3.7
2018-Mar-17 19:00N 68°51' E 016°29'2 3.7
2018-Mar-17 18:30N 68°53' E 016°30'2 3.5
2018-Mar-17 17:59N 68°51' E 016°29'2 3.7
2018-Mar-17 17:30N 68°53' E 016°30'0 0.0
2018-Mar-17 17:00N 68°53' E 016°30'0 0.0
2018-Mar-17 16:30N 68°53' E 016°30'2 3.6
2018-Mar-17 16:00N 68°51' E 016°30'2 3.5
2018-Mar-17 15:28N 68°53' E 016°30'2 3.7
2018-Mar-17 14:59N 68°51' E 016°29'2 3.8
2018-Mar-17 14:30N 68°53' E 016°30'2 3.7
2018-Mar-17 14:00N 68°51' E 016°30'2 3.7
2018-Mar-17 13:30N 68°53' E 016°30'2 3.4
2018-Mar-17 12:58N 68°51' E 016°29'0 0.0
2018-Mar-17 12:28N 68°51' E 016°29'0 0.0
2018-Mar-17 11:58N 68°51' E 016°29'0 0.0
2018-Mar-17 11:28N 68°51' E 016°29'0 0.0
2018-Mar-17 10:58N 68°51' E 016°29'1 2.6
2018-Mar-17 10:30N 68°52' E 016°30'1 2.5
2018-Mar-17 10:00N 68°51' E 016°30'2 3.6
2018-Mar-17 09:30N 68°53' E 016°30'2 3.7
2018-Mar-17 09:00N 68°51' E 016°30'2 3.4
2018-Mar-17 08:28N 68°53' E 016°30'2 4.0
2018-Mar-17 08:00N 68°51' E 016°30'2 3.5
2018-Mar-17 07:30N 68°53' E 016°30'2 3.5
2018-Mar-17 07:00N 68°51' E 016°30'2 3.6
2018-Mar-17 06:30N 68°53' E 016°30'0 0.0
2018-Mar-17 05:59N 68°53' E 016°30'0 0.0
2018-Mar-17 05:29N 68°53' E 016°30'0 0.0
2018-Mar-17 04:59N 68°53' E 016°30'0 0.0
2018-Mar-17 04:29N 68°53' E 016°30'0 0.0
2018-Mar-17 03:59N 68°53' E 016°30'0 0.0
2018-Mar-17 03:29N 68°53' E 016°30'0 0.0
2018-Mar-17 02:59N 68°53' E 016°30'0 0.0
2018-Mar-17 02:29N 68°53' E 016°30'0 0.0
2018-Mar-17 01:59N 68°53' E 016°30'0 0.0
2018-Mar-17 01:29N 68°53' E 016°30'0 0.0
2018-Mar-17 00:59N 68°53' E 016°30'0 0.0
2018-Mar-17 00:29N 68°53' E 016°30'0 0.0
2018-Mar-16 23:59N 68°53' E 016°30'0 0.0
2018-Mar-16 23:29N 68°53' E 016°30'0 0.0
2018-Mar-16 22:59N 68°53' E 016°30'0 0.0
2018-Mar-16 22:29N 68°53' E 016°30'2 3.8
2018-Mar-16 22:00N 68°51' E 016°30'2 3.6
2018-Mar-16 21:30N 68°53' E 016°30'2 3.7
2018-Mar-16 21:00N 68°51' E 016°30'2 3.6
2018-Mar-16 20:30N 68°53' E 016°30'2 3.5
2018-Mar-16 20:00N 68°51' E 016°29'2 3.6
2018-Mar-16 19:30N 68°53' E 016°30'2 2.9
2018-Mar-16 18:59N 68°51' E 016°30'2 3.2
2018-Mar-16 18:30N 68°53' E 016°30'2 3.7
2018-Mar-16 18:00N 68°51' E 016°30'0 0.0
2018-Mar-16 17:30N 68°51' E 016°29'0 0.0
2018-Mar-16 17:00N 68°51' E 016°29'2 3.6
2018-Mar-16 16:30N 68°53' E 016°30'1 2.9
2018-Mar-16 15:59N 68°51' E 016°30'0 0.8
2018-Mar-16 15:30N 68°51' E 016°29'1 2.4
2018-Mar-16 15:00N 68°52' E 016°30'1 2.3
2018-Mar-16 14:29N 68°51' E 016°29'2 3.6
2018-Mar-16 14:00N 68°53' E 016°30'1 2.4
2018-Mar-16 13:30N 68°52' E 016°30'1 1.3
2018-Mar-16 12:59N 68°51' E 016°29'0 0.0
2018-Mar-16 12:29N 68°51' E 016°29'0 0.0
2018-Mar-16 11:59N 68°51' E 016°29'0 0.0
2018-Mar-16 11:29N 68°51' E 016°29'0 0.1
2018-Mar-16 11:01N 68°51' E 016°30'1 2.3
2018-Mar-16 10:30N 68°52' E 016°30'1 1.3
2018-Mar-16 10:00N 68°53' E 016°30'1 1.4
2018-Mar-16 09:31N 68°52' E 016°30'1 2.1
2018-Mar-16 08:59N 68°51' E 016°29'0 0.9
2018-Mar-16 08:29N 68°52' E 016°30'1 2.7
2018-Mar-16 07:59N 68°53' E 016°30'1 1.6
2018-Mar-16 07:30N 68°52' E 016°30'1 2.2
2018-Mar-16 07:00N 68°51' E 016°30'2 3.4
2018-Mar-16 06:28N 68°53' E 016°30'2 3.7
2018-Mar-16 06:00N 68°51' E 016°30'0 0.5
2018-Mar-16 05:30N 68°51' E 016°30'2 3.5
2018-Mar-16 04:59N 68°53' E 016°30'0 0.0
2018-Mar-16 04:29N 68°53' E 016°30'0 0.0
2018-Mar-16 03:59N 68°53' E 016°30'0 0.0
2018-Mar-16 03:29N 68°53' E 016°30'0 0.0
2018-Mar-16 02:59N 68°53' E 016°30'0 0.0
2018-Mar-16 02:29N 68°53' E 016°30'0 0.0
2018-Mar-16 01:59N 68°53' E 016°30'0 0.0
2018-Mar-16 01:29N 68°53' E 016°30'0 0.0
2018-Mar-16 00:59N 68°53' E 016°30'0 0.0
2018-Mar-16 00:29N 68°53' E 016°30'0 0.0
2018-Mar-15 23:59N 68°53' E 016°30'0 0.0
2018-Mar-15 23:29N 68°53' E 016°30'0 0.0
2018-Mar-15 22:59N 68°53' E 016°30'0 0.0
2018-Mar-15 22:29N 68°53' E 016°30'2 3.5
2018-Mar-15 21:58N 68°51' E 016°29'2 3.8
2018-Mar-15 21:29N 68°53' E 016°30'2 3.5
2018-Mar-15 20:58N 68°51' E 016°29'2 3.9
2018-Mar-15 20:30N 68°53' E 016°30'2 3.5
2018-Mar-15 19:59N 68°51' E 016°29'2 3.8
2018-Mar-15 19:30N 68°53' E 016°30'2 3.0
2018-Mar-15 18:59N 68°51' E 016°30'2 3.3
2018-Mar-15 18:31N 68°53' E 016°30'2 3.5
2018-Mar-15 18:00N 68°51' E 016°29'0 0.0
2018-Mar-15 17:30N 68°51' E 016°29'0 0.0
2018-Mar-15 17:00N 68°51' E 016°29'2 3.7
2018-Mar-15 16:30N 68°53' E 016°30'2 3.4
2018-Mar-15 16:00N 68°51' E 016°30'0 0.3
2018-Mar-15 15:29N 68°51' E 016°29'1 2.7
2018-Mar-15 15:00N 68°52' E 016°30'1 2.5
2018-Mar-15 14:30N 68°51' E 016°30'2 3.4
2018-Mar-15 13:58N 68°53' E 016°30'1 2.8
2018-Mar-15 13:30N 68°52' E 016°30'1 1.0
2018-Mar-15 12:58N 68°51' E 016°29'0 0.0
2018-Mar-15 12:28N 68°51' E 016°29'0 0.0
2018-Mar-15 11:58N 68°51' E 016°29'0 0.0
2018-Mar-15 11:28N 68°51' E 016°29'0 0.1
2018-Mar-15 11:00N 68°51' E 016°30'1 1.2
2018-Mar-15 10:30N 68°52' E 016°30'1 2.6
2018-Mar-15 10:00N 68°53' E 016°30'1 1.2
2018-Mar-15 09:30N 68°52' E 016°30'1 2.4
2018-Mar-15 09:00N 68°51' E 016°29'1 1.1
2018-Mar-15 08:30N 68°52' E 016°30'1 2.5
2018-Mar-15 08:00N 68°53' E 016°30'1 1.4
2018-Mar-15 07:29N 68°52' E 016°30'1 2.3
2018-Mar-15 07:00N 68°51' E 016°30'2 3.6
2018-Mar-15 06:29N 68°53' E 016°30'2 3.7
2018-Mar-15 06:00N 68°51' E 016°30'0 0.4
2018-Mar-15 05:30N 68°51' E 016°30'2 3.5
2018-Mar-15 04:58N 68°53' E 016°30'0 0.0
2018-Mar-15 04:28N 68°53' E 016°30'0 0.0
2018-Mar-15 03:58N 68°53' E 016°30'0 0.0
2018-Mar-15 03:28N 68°53' E 016°30'0 0.0
2018-Mar-15 02:58N 68°53' E 016°30'0 0.0
2018-Mar-15 02:28N 68°53' E 016°30'0 0.0
2018-Mar-15 01:58N 68°53' E 016°30'0 0.0
2018-Mar-15 01:28N 68°53' E 016°30'0 0.0
2018-Mar-15 00:58N 68°53' E 016°30'0 0.0
2018-Mar-15 00:28N 68°53' E 016°30'0 0.0
2018-Mar-14 23:58N 68°53' E 016°30'0 0.0
2018-Mar-14 23:28N 68°53' E 016°30'0 0.0
2018-Mar-14 22:58N 68°53' E 016°30'0 0.0
2018-Mar-14 22:28N 68°53' E 016°30'2 3.9
2018-Mar-14 22:00N 68°51' E 016°30'2 3.6
2018-Mar-14 21:30N 68°53' E 016°30'2 3.7
2018-Mar-14 21:00N 68°51' E 016°30'2 3.6
2018-Mar-14 20:30N 68°53' E 016°30'2 3.5
2018-Mar-14 20:00N 68°51' E 016°29'2 3.7
2018-Mar-14 19:30N 68°53' E 016°30'1 2.6
2018-Mar-14 19:00N 68°52' E 016°30'1 2.5
2018-Mar-14 18:28N 68°53' E 016°30'2 4.0
2018-Mar-14 18:00N 68°51' E 016°30'0 0.0
2018-Mar-14 17:28N 68°51' E 016°29'0 0.0
2018-Mar-14 16:58N 68°51' E 016°29'2 3.7
2018-Mar-14 16:29N 68°53' E 016°30'2 3.7
2018-Mar-14 16:00N 68°51' E 016°30'0 0.4
2018-Mar-14 15:31N 68°51' E 016°30'2 2.9
2018-Mar-14 14:59N 68°53' E 016°30'2 3.2
2018-Mar-14 14:30N 68°51' E 016°30'2 3.6
2018-Mar-14 14:00N 68°53' E 016°30'1 2.7
2018-Mar-14 13:30N 68°52' E 016°30'0 1.0
2018-Mar-14 13:00N 68°51' E 016°30'0 0.0
2018-Mar-14 12:29N 68°51' E 016°29'0 0.0
2018-Mar-14 11:59N 68°51' E 016°29'0 0.0
2018-Mar-14 11:30N 68°51' E 016°29'0 0.0
2018-Mar-14 11:00N 68°51' E 016°29'1 2.0
2018-Mar-14 10:29N 68°52' E 016°30'1 1.6
2018-Mar-14 10:00N 68°53' E 016°30'0 0.7
2018-Mar-14 09:29N 68°53' E 016°30'1 3.0
2018-Mar-14 09:00N 68°51' E 016°29'1 1.3
2018-Mar-14 08:31N 68°52' E 016°30'1 2.4
2018-Mar-14 08:00N 68°53' E 016°30'1 1.7
2018-Mar-14 07:30N 68°52' E 016°30'1 1.9
2018-Mar-14 06:59N 68°51' E 016°29'2 3.8
2018-Mar-14 06:30N 68°53' E 016°30'2 3.2
2018-Mar-14 06:00N 68°51' E 016°30'0 0.6
2018-Mar-14 05:30N 68°51' E 016°29'2 3.7
2018-Mar-14 05:00N 68°53' E 016°30'0 0.0
2018-Mar-14 04:30N 68°53' E 016°30'0 0.0
2018-Mar-14 04:00N 68°53' E 016°30'0 0.0
2018-Mar-14 03:29N 68°53' E 016°30'0 0.0
2018-Mar-14 03:00N 68°53' E 016°30'0 0.0
2018-Mar-14 02:30N 68°53' E 016°30'0 0.0
2018-Mar-14 01:59N 68°53' E 016°30'0 0.0
2018-Mar-14 01:30N 68°53' E 016°30'0 0.0
2018-Mar-14 00:59N 68°53' E 016°30'0 0.0
2018-Mar-14 00:30N 68°53' E 016°30'0 0.0
2018-Mar-14 00:00N 68°53' E 016°30'0 0.0
2018-Mar-13 23:30N 68°53' E 016°30'0 0.0
2018-Mar-13 22:59N 68°53' E 016°30'0 0.0
2018-Mar-13 22:30N 68°53' E 016°30'2 3.7
2018-Mar-13 22:00N 68°51' E 016°29'2 3.5
2018-Mar-13 21:29N 68°53' E 016°30'2 3.7
2018-Mar-13 21:00N 68°51' E 016°29'2 3.7
2018-Mar-13 20:30N 68°53' E 016°30'2 3.6
2018-Mar-13 20:00N 68°51' E 016°30'2 3.7
2018-Mar-13 19:30N 68°53' E 016°30'1 2.7
2018-Mar-13 19:00N 68°52' E 016°30'1 2.9
2018-Mar-13 18:31N 68°53' E 016°30'2 3.5
2018-Mar-13 17:59N 68°51' E 016°29'0 0.0
2018-Mar-13 17:30N 68°51' E 016°29'0 0.0
2018-Mar-13 17:01N 68°51' E 016°29'2 3.4
2018-Mar-13 16:30N 68°53' E 016°30'1 2.1
2018-Mar-13 16:00N 68°52' E 016°30'1 1.6
2018-Mar-13 15:30N 68°51' E 016°29'1 2.2
2018-Mar-13 15:00N 68°52' E 016°30'1 2.3
2018-Mar-13 14:30N 68°51' E 016°29'2 3.7
2018-Mar-13 14:00N 68°53' E 016°30'1 2.0
2018-Mar-13 13:29N 68°52' E 016°30'1 1.6
2018-Mar-13 12:59N 68°51' E 016°29'0 0.0
2018-Mar-13 12:30N 68°51' E 016°29'0 0.0
2018-Mar-13 12:00N 68°51' E 016°29'0 0.0
2018-Mar-13 11:29N 68°51' E 016°29'0 0.0
2018-Mar-13 11:00N 68°51' E 016°29'2 3.1
2018-Mar-13 10:30N 68°53' E 016°30'0 0.6
2018-Mar-13 10:00N 68°53' E 016°30'1 1.5
2018-Mar-13 09:30N 68°52' E 016°30'1 2.2
2018-Mar-13 09:00N 68°51' E 016°29'0 0.9
2018-Mar-13 08:30N 68°52' E 016°30'1 2.7
2018-Mar-13 08:00N 68°53' E 016°30'0 0.8
2018-Mar-13 07:29N 68°52' E 016°30'1 2.9
2018-Mar-13 07:00N 68°51' E 016°29'2 3.7
2018-Mar-13 06:31N 68°53' E 016°30'2 3.1
2018-Mar-13 05:59N 68°51' E 016°30'0 0.6
2018-Mar-13 05:30N 68°51' E 016°29'2 3.7
2018-Mar-13 05:00N 68°53' E 016°30'0 0.0
2018-Mar-13 04:30N 68°53' E 016°30'0 0.0
2018-Mar-13 04:00N 68°53' E 016°30'0 0.0
2018-Mar-13 03:30N 68°53' E 016°30'0 0.0
2018-Mar-13 03:00N 68°53' E 016°30'0 0.0
2018-Mar-13 02:30N 68°53' E 016°30'0 0.0
2018-Mar-13 01:58N 68°53' E 016°30'0 0.0
2018-Mar-13 01:30N 68°53' E 016°30'0 0.0
2018-Mar-13 01:01N 68°53' E 016°30'0 0.0
2018-Mar-13 00:31N 68°53' E 016°30'0 0.0
2018-Mar-13 00:00N 68°53' E 016°30'0 0.0
2018-Mar-12 23:30N 68°53' E 016°30'0 0.0
2018-Mar-12 22:59N 68°53' E 016°30'0 0.0
2018-Mar-12 22:30N 68°53' E 016°30'2 3.7
2018-Mar-12 22:00N 68°51' E 016°29'2 3.6
2018-Mar-12 21:30N 68°53' E 016°30'2 3.6
2018-Mar-12 21:00N 68°51' E 016°29'2 3.7
2018-Mar-12 20:30N 68°53' E 016°30'2 3.6
2018-Mar-12 20:00N 68°51' E 016°29'2 3.5
2018-Mar-12 19:29N 68°53' E 016°30'1 2.7
2018-Mar-12 19:00N 68°52' E 016°30'1 2.7
2018-Mar-12 18:30N 68°53' E 016°30'2 3.6
2018-Mar-12 18:00N 68°51' E 016°29'0 0.0
2018-Mar-12 17:30N 68°51' E 016°29'0 0.0
2018-Mar-12 17:00N 68°51' E 016°29'2 3.6
2018-Mar-12 16:30N 68°53' E 016°30'2 3.7
2018-Mar-12 16:00N 68°51' E 016°30'0 0.3
2018-Mar-12 15:31N 68°51' E 016°29'1 2.4
2018-Mar-12 14:58N 68°52' E 016°30'1 2.7
2018-Mar-12 14:30N 68°51' E 016°30'2 3.7
2018-Mar-12 14:00N 68°53' E 016°30'1 2.2
2018-Mar-12 13:30N 68°52' E 016°30'1 1.5
2018-Mar-12 13:00N 68°51' E 016°29'0 0.0
2018-Mar-12 12:30N 68°51' E 016°29'0 0.0
2018-Mar-12 12:00N 68°51' E 016°29'0 0.0
2018-Mar-12 11:30N 68°51' E 016°29'  

Dump ship's entire track history